Portada
METAR-TAF:

METAR-TAF

Aeropuertos :

Granada, España

Aeropuerto de Granada

latitud: 37-11N, longitud: 003-47W, altitud: 567 m

Observación

El informe se hizo hace 25 minutos, a las 11:00 UTC
Viento calma
Temperatura 12°C
Humedad 44%
Presión 1022 hPa
Visibilidad 10 km o más
sin nubes por debajo de 1500 m y sin presencia de cumulonimbus.

METAR: LEGR 231100Z 00000KT CAVOK 12/00 Q1022

Hora: 12:25 (11:25 UTC)

Pronóstico

El informe se hizo hace 3 horas y 25 minutos, a las 08:00 UTC
Pronóstico válido del 23 a las 09 UTC al 24 a las 09 UTC
Viento 2 kt con dirección variable
Visibilidad 10 km o más
sin nubes por debajo de 1500 m y sin presencia de cumulonimbus.

TAF: LEGR 230800Z 2309/2409 VRB02KT CAVOK TX23/2315Z TN01/2407Z

Observaciones y pronósticos meteorológicos de más de 4000 aeropuertos (mensajes METAR y TAF).

Los puntos amarillos y rojos representan las estaciones disponibles.

Ponga el ratón en el punto deseado para ver el nombre de la estación.

Haga clic para ver las observaciones y los pronósticos meteorológicos.

Para cambiar el mapa : haga clic en los botones verdes con una cruz de color negro para hacer un zoom, en el botón verde con un guión para alejar o en las flechas verdes para mapas adyacentes.


METAR-TAF: